Time;durP1;ratioP1;P1;durP2;ratioP2;P2;SDS_P1;SDS_P2;PMS_P1;PMS_P2;Temp;Humidity;BMP_temperature;BMP_pressure;BME280_temperature;BME280_humidity;BME280_pressure;Samples;Min_cycle;Max_cycle;Signal;HPM_P1;HPM_P2
2021/12/31 00:01:41;;;;;;;6.93;4.20;;;;;;;;;;5033836;28;20108;-61
2021/12/31 00:04:07;;;;;;;7.43;4.50;;;;;;;;;;5033612;28;20164;-60
2021/12/31 00:06:32;;;;;;;6.25;3.92;;;;;;;;;;5033879;28;20454;-61
2021/12/31 00:08:58;;;;;;;6.05;4.22;;;;;;;;;;5033701;28;20056;-56
2021/12/31 00:11:23;;;;;;;7.55;4.80;;;;;;;;;;5033498;28;20060;-62
2021/12/31 00:13:49;;;;;;;8.18;4.43;;;;;;;;;;5033697;28;20052;-59
2021/12/31 00:16:14;;;;;;;7.47;4.90;;;;;;;;;;5033530;28;20390;-61
2021/12/31 00:18:40;;;;;;;9.00;5.15;;;;;;;;;;5033527;28;20021;-61
2021/12/31 00:21:06;;;;;;;7.85;5.38;;;;;;;;;;5032479;28;20452;-65
2021/12/31 00:23:31;;;;;;;9.35;5.15;;;;;;;;;;5033534;28;20053;-59
2021/12/31 00:25:57;;;;;;;7.93;4.80;;;;;;;;;;5033613;28;20091;-65
2021/12/31 00:28:23;;;;;;;8.27;4.38;;;;;;;;;;5033451;28;20426;-66
2021/12/31 00:30:53;;;;;;;7.75;4.80;;;;;;;;;;5032743;28;20430;-66
2021/12/31 00:33:19;;;;;;;8.88;4.90;;;;;;;;;;5032930;28;20450;-66
2021/12/31 00:35:44;;;;;;;6.43;4.55;;;;;;;;;;5033350;28;20112;-66
2021/12/31 00:38:10;;;;;;;11.38;4.50;;;;;;;;;;5033245;28;20086;-66
2021/12/31 00:40:36;;;;;;;9.82;4.53;;;;;;;;;;5033045;28;20216;-65
2021/12/31 00:43:02;;;;;;;8.20;4.45;;;;;;;;;;5033102;28;20025;-66
2021/12/31 00:45:28;;;;;;;7.28;4.32;;;;;;;;;;5033104;28;20021;-66
2021/12/31 00:47:55;;;;;;;8.73;4.63;;;;;;;;;;5032838;28;20025;-65
2021/12/31 00:50:20;;;;;;;6.88;4.47;;;;;;;;;;5033094;28;20037;-66
2021/12/31 00:52:46;;;;;;;7.60;4.82;;;;;;;;;;5033011;28;20017;-66
2021/12/31 00:55:12;;;;;;;9.98;4.63;;;;;;;;;;5033014;28;20056;-66
2021/12/31 00:57:40;;;;;;;6.78;4.50;;;;;;;;;;5032921;28;20053;-66
2021/12/31 01:00:07;;;;;;;7.88;5.03;;;;;;;;;;5032709;28;20029;-66
2021/12/31 01:02:33;;;;;;;8.55;4.47;;;;;;;;;;5032690;28;20083;-66
2021/12/31 01:04:59;;;;;;;7.30;4.80;;;;;;;;;;5032679;28;20487;-63
2021/12/31 01:07:24;;;;;;;6.15;4.10;;;;;;;;;;5032874;28;20488;-65
2021/12/31 01:09:50;;;;;;;6.88;4.57;;;;;;;;;;5032795;28;20044;-65
2021/12/31 01:12:17;;;;;;;8.88;4.32;;;;;;;;;;5032623;28;20539;-66
2021/12/31 01:14:57;;;;;;;7.68;4.20;;;;;;;;;;5032652;28;20025;-66
2021/12/31 01:17:40;;;;;;;5.65;3.80;;;;;;;;;;5032452;28;20439;-66
2021/12/31 01:20:07;;;;;;;8.13;3.80;;;;;;;;;;5032412;28;20030;-66
2021/12/31 01:22:33;;;;;;;7.57;3.78;;;;;;;;;;5032727;28;20057;-66
2021/12/31 01:24:59;;;;;;;7.63;3.58;;;;;;;;;;5032426;28;20112;-62
2021/12/31 01:27:24;;;;;;;7.00;3.58;;;;;;;;;;5032441;28;20033;-66
2021/12/31 01:29:50;;;;;;;8.25;3.95;;;;;;;;;;5032301;28;21458;-66
2021/12/31 01:32:16;;;;;;;5.80;3.50;;;;;;;;;;5032011;28;20112;-66
2021/12/31 01:34:42;;;;;;;8.02;3.67;;;;;;;;;;5032218;28;20473;-64
2021/12/31 01:37:08;;;;;;;4.82;3.58;;;;;;;;;;5032512;28;20498;-66
2021/12/31 01:39:34;;;;;;;5.70;3.10;;;;;;;;;;5032155;28;20032;-66
2021/12/31 01:42:01;;;;;;;4.32;3.05;;;;;;;;;;5032355;28;20037;-64
2021/12/31 01:44:35;;;;;;;5.20;3.50;;;;;;;;;;5032445;28;20036;-67
2021/12/31 01:47:05;;;;;;;4.75;3.00;;;;;;;;;;5032326;28;20025;-58
2021/12/31 01:49:37;;;;;;;6.93;3.22;;;;;;;;;;5019733;28;20052;-56
2021/12/31 01:52:05;;;;;;;5.20;2.97;;;;;;;;;;5032206;28;20038;-56
2021/12/31 01:54:32;;;;;;;5.32;3.10;;;;;;;;;;5032486;28;20087;-58
2021/12/31 01:57:00;;;;;;;5.07;2.85;;;;;;;;;;5032140;28;20026;-59
2021/12/31 01:59:26;;;;;;;5.10;2.90;;;;;;;;;;5032146;28;20103;-57
2021/12/31 02:01:54;;;;;;;4.97;2.60;;;;;;;;;;5032065;28;20033;-59
2021/12/31 02:04:20;;;;;;;4.78;2.70;;;;;;;;;;5032217;28;20068;-59
2021/12/31 02:06:45;;;;;;;5.05;3.10;;;;;;;;;;5032142;28;20017;-59
2021/12/31 02:09:12;;;;;;;6.10;2.80;;;;;;;;;;5032245;28;20021;-58
2021/12/31 02:11:38;;;;;;;5.22;3.03;;;;;;;;;;5032177;28;20041;-60
2021/12/31 02:14:04;;;;;;;5.13;2.75;;;;;;;;;;5031990;28;20017;-66
2021/12/31 02:16:31;;;;;;;6.40;2.88;;;;;;;;;;5032060;28;20028;-56
2021/12/31 02:18:57;;;;;;;5.03;2.85;;;;;;;;;;5032356;28;20093;-59
2021/12/31 02:21:23;;;;;;;3.90;2.17;;;;;;;;;;5031843;28;20119;-59
2021/12/31 02:23:55;;;;;;;5.45;2.78;;;;;;;;;;5032091;28;20052;-61
2021/12/31 02:26:20;;;;;;;4.45;2.40;;;;;;;;;;5031977;28;20439;-58
2021/12/31 02:28:46;;;;;;;3.10;2.10;;;;;;;;;;5031749;28;20033;-58
2021/12/31 02:31:11;;;;;;;4.25;2.40;;;;;;;;;;5031871;28;20050;-63
2021/12/31 02:33:37;;;;;;;3.78;2.15;;;;;;;;;;5031694;28;20068;-58
2021/12/31 02:36:05;;;;;;;3.33;2.10;;;;;;;;;;5031870;28;20484;-66
2021/12/31 02:38:31;;;;;;;5.45;2.22;;;;;;;;;;5032115;28;20056;-66
2021/12/31 02:40:56;;;;;;;6.07;2.45;;;;;;;;;;5031716;28;20061;-66
2021/12/31 02:43:22;;;;;;;4.03;2.17;;;;;;;;;;5032850;28;20141;-65
2021/12/31 02:45:48;;;;;;;3.45;2.20;;;;;;;;;;5034570;28;20036;-62
2021/12/31 02:48:14;;;;;;;4.38;2.33;;;;;;;;;;5035118;28;20018;-66
2021/12/31 02:50:41;;;;;;;4.15;2.10;;;;;;;;;;5035504;28;20431;-63
2021/12/31 02:53:14;;;;;;;3.58;2.50;;;;;;;;;;5035207;28;20017;-63
2021/12/31 02:55:41;;;;;;;3.88;2.50;;;;;;;;;;5035210;28;20018;-63
2021/12/31 02:58:07;;;;;;;5.05;2.50;;;;;;;;;;5034904;28;20034;-61
2021/12/31 03:00:35;;;;;;;5.85;2.50;;;;;;;;;;5035147;28;20040;-64
2021/12/31 03:03:01;;;;;;;3.88;2.22;;;;;;;;;;5034653;28;20037;-62
2021/12/31 03:05:29;;;;;;;3.42;2.15;;;;;;;;;;5035115;28;20480;-63
2021/12/31 03:07:57;;;;;;;5.35;2.20;;;;;;;;;;5034984;28;20033;-64
2021/12/31 03:10:26;;;;;;;3.30;2.40;;;;;;;;;;5035117;28;20052;-66
2021/12/31 03:12:51;;;;;;;3.13;2.08;;;;;;;;;;5034512;28;20109;-66
2021/12/31 03:15:17;;;;;;;4.10;1.88;;;;;;;;;;5034944;28;20065;-65
2021/12/31 03:17:44;;;;;;;3.42;2.20;;;;;;;;;;5034812;28;20017;-65
2021/12/31 03:20:25;;;;;;;3.20;2.17;;;;;;;;;;5034765;28;20022;-64
2021/12/31 03:22:51;;;;;;;2.97;1.98;;;;;;;;;;5034809;28;20029;-65
2021/12/31 03:25:17;;;;;;;5.40;1.88;;;;;;;;;;5034606;28;20030;-65
2021/12/31 03:27:43;;;;;;;3.15;1.80;;;;;;;;;;5034530;28;20083;-63
2021/12/31 03:30:10;;;;;;;2.88;1.60;;;;;;;;;;5016577;28;20051;-65
2021/12/31 03:32:36;;;;;;;3.08;1.50;;;;;;;;;;5034414;28;20091;-63
2021/12/31 03:35:02;;;;;;;5.32;1.70;;;;;;;;;;5034577;28;20033;-59
2021/12/31 03:37:27;;;;;;;2.97;1.80;;;;;;;;;;5034370;28;20080;-60
2021/12/31 03:39:53;;;;;;;3.35;1.88;;;;;;;;;;5034450;28;20141;-61
2021/12/31 03:42:18;;;;;;;3.88;1.50;;;;;;;;;;5034200;28;20120;-62
2021/12/31 03:44:44;;;;;;;3.75;2.00;;;;;;;;;;5034273;28;20029;-59
2021/12/31 03:47:10;;;;;;;3.08;1.70;;;;;;;;;;5034416;28;20117;-61
2021/12/31 03:49:35;;;;;;;3.13;1.73;;;;;;;;;;5034186;28;20430;-60
2021/12/31 03:52:01;;;;;;;2.40;1.60;;;;;;;;;;5034090;28;20040;-59
2021/12/31 03:54:26;;;;;;;2.88;1.17;;;;;;;;;;5034148;28;20049;-60
2021/12/31 03:56:52;;;;;;;1.75;1.10;;;;;;;;;;5033805;28;20017;-65
2021/12/31 03:59:17;;;;;;;2.25;0.90;;;;;;;;;;5034124;28;20033;-61
2021/12/31 04:01:42;;;;;;;1.02;0.88;;;;;;;;;;5033909;28;20036;-60
2021/12/31 04:04:08;;;;;;;1.75;1.02;;;;;;;;;;5033859;28;20464;-61
2021/12/31 04:06:34;;;;;;;2.00;0.95;;;;;;;;;;5033693;28;20032;-62
2021/12/31 04:08:59;;;;;;;1.20;0.80;;;;;;;;;;5034089;28;20028;-66
2021/12/31 04:11:25;;;;;;;2.03;0.90;;;;;;;;;;5033544;28;20022;-59
2021/12/31 04:13:50;;;;;;;1.42;1.00;;;;;;;;;;5033883;28;20034;-59
2021/12/31 04:16:16;;;;;;;1.23;0.80;;;;;;;;;;5033650;28;20053;-62
2021/12/31 04:18:41;;;;;;;2.03;0.90;;;;;;;;;;5033768;28;20061;-64
2021/12/31 04:21:07;;;;;;;2.70;0.90;;;;;;;;;;5033307;28;20033;-63
2021/12/31 04:23:36;;;;;;;1.20;0.90;;;;;;;;;;5033338;28;20067;-62
2021/12/31 04:26:03;;;;;;;1.45;1.00;;;;;;;;;;5033115;28;20101;-58
2021/12/31 04:28:29;;;;;;;0.82;0.73;;;;;;;;;;5033558;28;20120;-57
2021/12/31 04:30:56;;;;;;;1.02;0.80;;;;;;;;;;5015464;28;20045;-57
2021/12/31 04:33:21;;;;;;;1.30;0.80;;;;;;;;;;5033171;28;20029;-59
2021/12/31 04:35:47;;;;;;;1.08;0.90;;;;;;;;;;5033493;28;20037;-56
2021/12/31 04:38:13;;;;;;;2.38;0.80;;;;;;;;;;5033396;28;20061;-53
2021/12/31 04:40:38;;;;;;;3.65;1.08;;;;;;;;;;5032320;28;20038;-56
2021/12/31 04:43:04;;;;;;;2.58;0.90;;;;;;;;;;5033133;28;20026;-61
2021/12/31 04:45:29;;;;;;;1.85;0.80;;;;;;;;;;5033127;28;20040;-60
2021/12/31 04:47:55;;;;;;;1.98;1.00;;;;;;;;;;5033316;28;20022;-57
2021/12/31 04:50:20;;;;;;;3.15;0.82;;;;;;;;;;5033207;28;20396;-61
2021/12/31 04:52:46;;;;;;;3.08;0.90;;;;;;;;;;5033079;28;20036;-59
2021/12/31 04:55:11;;;;;;;1.35;0.75;;;;;;;;;;5032865;28;20025;-60
2021/12/31 04:57:38;;;;;;;1.10;0.82;;;;;;;;;;5032806;28;20031;-57
2021/12/31 05:00:05;;;;;;;3.28;1.33;;;;;;;;;;5032783;28;20053;-59
2021/12/31 05:02:31;;;;;;;3.65;1.20;;;;;;;;;;5032871;28;20048;-58
2021/12/31 05:04:56;;;;;;;2.22;1.20;;;;;;;;;;5032682;28;20468;-58
2021/12/31 05:07:22;;;;;;;2.28;1.30;;;;;;;;;;5032588;28;20057;-66
2021/12/31 05:09:47;;;;;;;3.88;1.40;;;;;;;;;;5032749;28;20038;-66
2021/12/31 05:12:17;;;;;;;1.65;1.20;;;;;;;;;;5032777;28;20026;-66
2021/12/31 05:14:43;;;;;;;;;;;;;;;;;;5033185;28;20029;-65
2021/12/31 05:17:08;;;;;;;2.28;1.20;;;;;;;;;;5032858;28;19913;-66
2021/12/31 05:19:34;;;;;;;3.25;1.40;;;;;;;;;;5032714;28;20036;-66
2021/12/31 05:21:59;;;;;;;2.47;1.70;;;;;;;;;;5032577;28;20400;-66
2021/12/31 05:24:25;;;;;;;1.92;1.40;;;;;;;;;;5032629;28;20353;-63
2021/12/31 05:26:50;;;;;;;4.60;2.08;;;;;;;;;;5032706;28;20423;-58
2021/12/31 05:29:15;;;;;;;7.63;2.55;;;;;;;;;;5032457;28;20527;-59
2021/12/31 05:31:41;;;;;;;4.75;1.85;;;;;;;;;;5032254;28;20083;-58
2021/12/31 05:34:06;;;;;;;6.53;2.35;;;;;;;;;;5032377;28;20481;-58
2021/12/31 05:36:32;;;;;;;5.88;2.70;;;;;;;;;;5032526;28;20014;-66
2021/12/31 05:38:57;;;;;;;4.78;2.40;;;;;;;;;;5032014;28;20033;-66
2021/12/31 05:41:23;;;;;;;4.75;2.47;;;;;;;;;;5032501;28;20025;-66
2021/12/31 05:43:48;;;;;;;5.97;2.42;;;;;;;;;;5032269;28;20033;-66
2021/12/31 05:46:13;;;;;;;6.35;2.70;;;;;;;;;;5032279;28;20032;-65
2021/12/31 05:48:39;;;;;;;4.32;2.72;;;;;;;;;;5032314;28;20018;-63
2021/12/31 05:51:04;;;;;;;7.22;3.15;;;;;;;;;;5032422;28;20026;-65
2021/12/31 05:53:30;;;;;;;8.02;3.10;;;;;;;;;;5032104;28;20034;-66
2021/12/31 05:55:56;;;;;;;8.20;3.38;;;;;;;;;;5032059;28;20022;-66
2021/12/31 05:58:21;;;;;;;4.20;2.72;;;;;;;;;;5032423;28;20077;-66
2021/12/31 06:00:47;;;;;;;6.75;2.90;;;;;;;;;;5031996;28;20388;-66
2021/12/31 06:03:12;;;;;;;6.10;2.95;;;;;;;;;;5032571;28;20029;-66
2021/12/31 06:05:38;;;;;;;7.95;3.20;;;;;;;;;;5032148;28;20025;-66
2021/12/31 06:08:03;;;;;;;5.85;3.10;;;;;;;;;;5031788;28;20383;-66
2021/12/31 06:10:29;;;;;;;8.60;3.20;;;;;;;;;;5032236;28;20033;-64
2021/12/31 06:12:58;;;;;;;5.75;3.20;;;;;;;;;;5032115;28;20077;-65
2021/12/31 06:15:26;;;;;;;8.30;3.17;;;;;;;;;;5031934;28;20385;-65
2021/12/31 06:17:51;;;;;;;4.93;2.80;;;;;;;;;;5032461;28;20103;-62
2021/12/31 06:20:17;;;;;;;7.03;3.33;;;;;;;;;;5035606;28;20053;-62
2021/12/31 06:22:42;;;;;;;7.30;3.58;;;;;;;;;;5035559;28;20022;-63
2021/12/31 06:25:09;;;;;;;6.03;3.35;;;;;;;;;;5017921;28;20080;-65
2021/12/31 06:27:34;;;;;;;8.93;3.45;;;;;;;;;;5035653;28;20038;-64
2021/12/31 06:30:00;;;;;;;6.40;2.85;;;;;;;;;;5035642;28;20041;-64
2021/12/31 06:32:25;;;;;;;4.45;3.40;;;;;;;;;;5035436;28;20026;-65
2021/12/31 06:34:51;;;;;;;7.63;3.65;;;;;;;;;;5035637;28;20113;-59
2021/12/31 06:37:16;;;;;;;7.70;3.42;;;;;;;;;;5035473;28;20033;-59
2021/12/31 06:39:44;;;;;;;9.55;3.72;;;;;;;;;;5035516;28;20052;-56
2021/12/31 06:42:09;;;;;;;8.18;4.25;;;;;;;;;;5035199;28;20038;-58
2021/12/31 06:44:36;;;;;;;10.23;4.70;;;;;;;;;;5035357;28;20017;-62
2021/12/31 06:47:03;;;;;;;7.88;3.53;;;;;;;;;;5035096;28;20488;-60
2021/12/31 06:49:29;;;;;;;8.18;4.63;;;;;;;;;;5035115;28;20037;-56
2021/12/31 06:51:54;;;;;;;9.30;4.40;;;;;;;;;;5035314;28;20083;-58
2021/12/31 06:54:20;;;;;;;11.27;5.70;;;;;;;;;;5035217;28;20112;-58
2021/12/31 06:56:45;;;;;;;14.55;4.47;;;;;;;;;;5035263;28;20033;-58
2021/12/31 06:59:11;;;;;;;19.27;12.88;;;;;;;;;;5035183;28;20100;-59
2021/12/31 07:01:36;;;;;;;10.93;4.32;;;;;;;;;;5035111;28;20033;-56
2021/12/31 07:04:01;;;;;;;6.95;4.40;;;;;;;;;;5034791;28;20037;-66
2021/12/31 07:06:27;;;;;;;7.22;4.40;;;;;;;;;;5035086;28;20029;-64
2021/12/31 07:08:52;;;;;;;10.68;5.00;;;;;;;;;;5034894;28;20029;-58
2021/12/31 07:11:21;;;;;;;6.78;4.13;;;;;;;;;;5034955;28;20084;-63
2021/12/31 07:13:47;;;;;;;8.48;4.55;;;;;;;;;;5034671;28;20046;-64
2021/12/31 07:16:13;;;;;;;8.80;4.85;;;;;;;;;;5034796;28;20021;-65
2021/12/31 07:18:38;;;;;;;8.93;3.83;;;;;;;;;;5034549;28;20417;-63
2021/12/31 07:21:03;;;;;;;11.07;4.63;;;;;;;;;;5034455;28;20030;-66
2021/12/31 07:23:29;;;;;;;9.35;4.70;;;;;;;;;;5034743;28;20579;-58
2021/12/31 07:25:54;;;;;;;12.15;5.43;;;;;;;;;;5034705;28;20021;-59
2021/12/31 07:28:20;;;;;;;8.38;4.97;;;;;;;;;;5034370;28;20029;-57
2021/12/31 07:30:47;;;;;;;7.85;4.45;;;;;;;;;;5033994;28;20041;-57
2021/12/31 07:33:23;;;;;;;11.25;5.03;;;;;;;;;;5034028;28;20049;-62
2021/12/31 07:35:50;;;;;;;8.80;4.45;;;;;;;;;;5034509;28;20091;-61
2021/12/31 07:38:20;;;;;;;9.60;4.82;;;;;;;;;;5034255;28;20042;-57
2021/12/31 07:40:47;;;;;;;7.80;4.20;;;;;;;;;;5034364;28;20041;-58
2021/12/31 07:43:13;;;;;;;8.95;4.53;;;;;;;;;;5034182;28;20025;-59
2021/12/31 07:45:40;;;;;;;7.50;4.60;;;;;;;;;;5034223;28;20033;-59
2021/12/31 07:48:06;;;;;;;11.90;4.40;;;;;;;;;;5033790;28;20439;-59
2021/12/31 07:50:32;;;;;;;7.95;3.90;;;;;;;;;;5034218;28;20017;-58
2021/12/31 07:52:58;;;;;;;12.30;4.78;;;;;;;;;;5034115;28;20112;-64
2021/12/31 07:55:24;;;;;;;10.40;4.47;;;;;;;;;;5034301;28;20057;-60
2021/12/31 07:57:49;;;;;;;10.65;4.50;;;;;;;;;;5034015;28;20021;-65
2021/12/31 08:00:15;;;;;;;11.02;4.13;;;;;;;;;;5033818;28;20030;-58
2021/12/31 08:02:41;;;;;;;10.00;3.97;;;;;;;;;;5033350;28;20064;-56
2021/12/31 08:05:07;;;;;;;6.53;3.65;;;;;;;;;;5033858;28;20030;-59
2021/12/31 08:07:32;;;;;;;10.15;3.35;;;;;;;;;;5033575;28;20025;-65
2021/12/31 08:09:58;;;;;;;6.28;3.35;;;;;;;;;;5033692;28;20040;-59
2021/12/31 08:12:23;;;;;;;6.47;3.45;;;;;;;;;;5033791;28;20025;-58
2021/12/31 08:14:49;;;;;;;6.05;3.70;;;;;;;;;;5033697;28;20029;-65
2021/12/31 08:17:14;;;;;;;5.85;3.17;;;;;;;;;;5030442;28;20097;-65
2021/12/31 08:19:41;;;;;;;4.30;3.08;;;;;;;;;;5033341;28;20025;-59
2021/12/31 08:22:07;;;;;;;5.13;3.00;;;;;;;;;;5033473;28;20029;-57
2021/12/31 08:24:32;;;;;;;6.60;3.17;;;;;;;;;;5033680;28;20038;-59
2021/12/31 08:26:58;;;;;;;6.55;3.13;;;;;;;;;;5033354;28;20029;-57
2021/12/31 08:29:23;;;;;;;11.35;3.10;;;;;;;;;;5033582;28;20029;-59
2021/12/31 08:31:48;;;;;;;6.38;3.33;;;;;;;;;;5032903;28;20037;-58
2021/12/31 08:34:14;;;;;;;6.47;3.13;;;;;;;;;;5033538;28;20037;-58
2021/12/31 08:36:39;;;;;;;5.28;3.38;;;;;;;;;;5033089;28;20028;-57
2021/12/31 08:39:10;;;;;;;5.03;3.10;;;;;;;;;;5033151;28;20029;-57
2021/12/31 08:41:36;;;;;;;;;;;;;;;;;;5032726;28;20878;-63
2021/12/31 08:44:02;;;;;;;4.88;2.83;;;;;;;;;;5033358;28;19913;-58
2021/12/31 08:46:27;;;;;;;5.35;2.95;;;;;;;;;;5033007;28;20461;-61
2021/12/31 08:48:53;;;;;;;6.55;2.92;;;;;;;;;;5033113;28;20025;-58
2021/12/31 08:51:19;;;;;;;7.30;3.47;;;;;;;;;;5033077;28;20056;-65
2021/12/31 08:53:44;;;;;;;5.68;3.20;;;;;;;;;;5033094;28;20472;-62
2021/12/31 08:56:10;;;;;;;9.13;3.30;;;;;;;;;;5033126;28;20026;-59
2021/12/31 08:58:35;;;;;;;9.20;4.07;;;;;;;;;;5032943;28;20029;-60
2021/12/31 09:01:01;;;;;;;8.30;4.18;;;;;;;;;;5032507;28;20084;-57
2021/12/31 09:03:26;;;;;;;8.20;4.03;;;;;;;;;;5032819;28;20029;-56
2021/12/31 09:05:52;;;;;;;7.00;4.03;;;;;;;;;;5032833;28;20112;-58
2021/12/31 09:08:17;;;;;;;9.48;4.20;;;;;;;;;;5032787;28;20072;-59
2021/12/31 09:10:43;;;;;;;8.68;3.70;;;;;;;;;;5032634;28;20102;-56
2021/12/31 09:13:09;;;;;;;8.18;4.25;;;;;;;;;;5032336;28;20065;-58
2021/12/31 09:15:34;;;;;;;8.57;4.22;;;;;;;;;;5032609;28;20025;-60
2021/12/31 09:18:00;;;;;;;6.65;3.92;;;;;;;;;;5032769;28;20048;-57
2021/12/31 09:20:26;;;;;;;9.02;4.72;;;;;;;;;;5032821;28;20028;-59
2021/12/31 09:22:52;;;;;;;5.95;4.65;;;;;;;;;;5032448;28;20026;-58
2021/12/31 09:25:18;;;;;;;7.18;4.43;;;;;;;;;;5032397;28;20040;-58
2021/12/31 09:27:43;;;;;;;9.95;4.75;;;;;;;;;;5014624;28;20535;-59
2021/12/31 09:30:09;;;;;;;10.23;5.18;;;;;;;;;;5031946;28;20050;-55
2021/12/31 09:32:35;;;;;;;7.60;4.97;;;;;;;;;;5032358;28;20100;-58
2021/12/31 09:35:01;;;;;;;12.30;4.80;;;;;;;;;;5014605;28;20117;-58
2021/12/31 09:37:26;;;;;;;9.48;5.10;;;;;;;;;;5032415;28;20425;-59
2021/12/31 09:39:52;;;;;;;8.90;4.75;;;;;;;;;;5032238;28;20357;-62
2021/12/31 09:42:17;;;;;;;10.57;5.57;;;;;;;;;;5032448;28;20553;-57
2021/12/31 09:44:47;;;;;;;7.93;5.20;;;;;;;;;;5032040;28;20030;-58
2021/12/31 09:47:13;;;;;;;11.25;7.45;;;;;;;;;;5014194;28;20029;-58
2021/12/31 09:49:39;;;;;;;11.15;6.97;;;;;;;;;;5032248;28;20386;-58
2021/12/31 09:52:09;;;;;;;14.55;6.82;;;;;;;;;;5033229;28;20472;-59
2021/12/31 09:54:34;;;;;;;9.87;6.43;;;;;;;;;;5036343;28;20033;-58
2021/12/31 09:57:02;;;;;;;10.60;6.07;;;;;;;;;;5036468;28;20109;-57
2021/12/31 09:59:28;;;;;;;8.57;5.13;;;;;;;;;;5036248;28;20034;-57
2021/12/31 10:01:55;;;;;;;12.63;5.65;;;;;;;;;;5035795;28;20036;-66
2021/12/31 10:04:22;;;;;;;8.88;5.38;;;;;;;;;;5036286;28;20028;-66
2021/12/31 10:07:08;;;;;;;8.30;4.82;;;;;;;;;;5036059;28;20040;-66
2021/12/31 10:09:35;;;;;;;7.00;4.78;;;;;;;;;;5035806;28;20086;-66
2021/12/31 10:12:01;;;;;;;7.40;5.00;;;;;;;;;;5035858;28;20020;-64
2021/12/31 10:14:38;;;;;;;7.97;5.30;;;;;;;;;;5035849;28;20017;-67
2021/12/31 10:17:08;;;;;;;10.55;5.30;;;;;;;;;;5036107;28;20037;-66
2021/12/31 10:19:33;;;;;;;10.07;4.20;;;;;;;;;;5035964;28;20033;-67
2021/12/31 10:21:59;;;;;;;6.72;4.25;;;;;;;;;;5035600;28;20041;-61
2021/12/31 10:24:33;;;;;;;6.55;4.28;;;;;;;;;;5035707;28;20026;-64
2021/12/31 10:27:14;;;;;;;11.27;4.70;;;;;;;;;;5035294;28;20030;-58
2021/12/31 10:30:00;;;;;;;11.73;4.75;;;;;;;;;;5023882;28;20097;-58
2021/12/31 10:32:29;;;;;;;11.07;5.38;;;;;;;;;;5035352;28;20033;-57
2021/12/31 10:35:07;;;;;;;11.05;5.28;;;;;;;;;;5035441;28;20021;-57
2021/12/31 10:37:44;;;;;;;9.07;5.28;;;;;;;;;;5035479;28;20052;-56
2021/12/31 10:40:11;;;;;;;9.73;4.68;;;;;;;;;;5035431;28;20036;-65
2021/12/31 10:42:37;;;;;;;8.27;5.15;;;;;;;;;;5035081;28;20033;-66
2021/12/31 10:45:04;;;;;;;7.85;5.00;;;;;;;;;;5035448;28;20037;-64
2021/12/31 10:47:38;;;;;;;8.40;4.80;;;;;;;;;;5035348;28;20431;-65
2021/12/31 10:50:04;;;;;;;7.32;4.13;;;;;;;;;;5034953;28;20503;-65
2021/12/31 10:52:55;;;;;;;6.68;4.32;;;;;;;;;;5035290;28;20029;-65
2021/12/31 10:55:29;;;;;;;9.07;4.95;;;;;;;;;;5034884;28;20029;-66
2021/12/31 10:57:57;;;;;;;6.75;4.78;;;;;;;;;;5035003;28;20034;-66
2021/12/31 11:00:24;;;;;;;7.82;4.82;;;;;;;;;;5035055;28;20101;-66
2021/12/31 11:02:50;;;;;;;8.82;5.28;;;;;;;;;;5034867;28;20107;-61
2021/12/31 11:05:23;;;;;;;7.20;5.10;;;;;;;;;;5016443;28;20452;-63
2021/12/31 11:07:50;;;;;;;7.18;4.53;;;;;;;;;;5034980;28;20034;-63
2021/12/31 11:10:18;;;;;;;7.70;4.30;;;;;;;;;;5034869;28;20480;-63
2021/12/31 11:12:47;;;;;;;8.80;4.45;;;;;;;;;;5034739;28;20033;-63
2021/12/31 11:15:14;;;;;;;6.97;4.22;;;;;;;;;;5034921;28;20101;-65
2021/12/31 11:17:40;;;;;;;8.48;4.38;;;;;;;;;;5034983;28;20033;-63
2021/12/31 11:20:08;;;;;;;8.00;4.38;;;;;;;;;;5034785;28;20049;-65
2021/12/31 11:22:34;;;;;;;5.18;4.35;;;;;;;;;;5034398;28;20029;-63
2021/12/31 11:25:18;;;;;;;6.82;4.32;;;;;;;;;;5034389;28;20502;-60
2021/12/31 11:27:47;;;;;;;6.93;4.53;;;;;;;;;;5034714;28;20104;-62
2021/12/31 11:30:37;;;;;;;9.15;4.32;;;;;;;;;;5034326;28;20077;-59
2021/12/31 11:33:17;;;;;;;5.18;3.85;;;;;;;;;;5034099;28;20108;-66
2021/12/31 11:36:06;;;;;;;7.22;3.80;;;;;;;;;;5034370;28;20048;-66
2021/12/31 11:38:31;;;;;;;5.47;4.32;;;;;;;;;;5034396;28;20026;-66
2021/12/31 11:41:11;;;;;;;8.68;4.22;;;;;;;;;;5034003;28;20120;-66
2021/12/31 11:43:41;;;;;;;9.13;4.65;;;;;;;;;;5034095;28;20022;-66
2021/12/31 11:46:12;;;;;;;9.18;4.40;;;;;;;;;;5033902;28;20033;-65
2021/12/31 11:48:51;;;;;;;6.38;4.20;;;;;;;;;;5033773;28;20048;-66
2021/12/31 11:51:34;;;;;;;10.85;4.75;;;;;;;;;;5033941;28;20334;-66
2021/12/31 11:54:04;;;;;;;9.57;5.07;;;;;;;;;;5033646;28;20017;-63
2021/12/31 11:56:35;;;;;;;13.25;4.95;;;;;;;;;;5034277;28;20030;-66
2021/12/31 11:59:13;;;;;;;8.70;4.43;;;;;;;;;;5033821;28;20029;-65
2021/12/31 12:01:51;;;;;;;10.15;5.10;;;;;;;;;;5033633;28;20036;-64
2021/12/31 12:04:20;;;;;;;7.53;4.10;;;;;;;;;;5025672;28;20031;-65
2021/12/31 12:07:02;;;;;;;10.87;3.73;;;;;;;;;;5033952;28;20021;-60
2021/12/31 12:09:37;;;;;;;7.38;3.72;;;;;;;;;;5033597;28;20048;-64
2021/12/31 12:12:28;;;;;;;7.72;3.70;;;;;;;;;;5033445;28;20376;-65
2021/12/31 12:14:57;;;;;;;4.72;3.30;;;;;;;;;;5033604;28;20037;-62
2021/12/31 12:17:29;;;;;;;7.80;3.22;;;;;;;;;;5033662;28;20108;-65
2021/12/31 12:20:00;;;;;;;6.10;3.95;;;;;;;;;;5033506;28;20097;-62
2021/12/31 12:22:56;;;;;;;8.07;3.60;;;;;;;;;;5033569;28;20376;-64
2021/12/31 12:25:31;;;;;;;5.97;3.15;;;;;;;;;;5033390;28;20388;-65
2021/12/31 12:28:09;;;;;;;5.72;2.95;;;;;;;;;;5033397;28;20065;-62
2021/12/31 12:30:42;;;;;;;5.30;2.88;;;;;;;;;;5033518;28;20053;-66
2021/12/31 12:33:16;;;;;;;6.82;3.10;;;;;;;;;;5033190;28;20029;-57
2021/12/31 12:35:52;;;;;;;4.47;3.00;;;;;;;;;;5033356;28;20052;-59
2021/12/31 12:38:24;;;;;;;5.35;3.08;;;;;;;;;;5033101;28;20026;-65
2021/12/31 12:40:52;;;;;;;6.03;3.10;;;;;;;;;;5032965;28;20380;-58
2021/12/31 12:43:32;;;;;;;7.55;3.00;;;;;;;;;;5033186;28;20041;-58
2021/12/31 12:46:18;;;;;;;8.48;3.00;;;;;;;;;;5032859;28;20025;-58
2021/12/31 12:48:49;;;;;;;5.28;2.72;;;;;;;;;;5032900;28;20029;-59
2021/12/31 12:51:15;;;;;;;;;;;;;;;;;;5033681;28;20044;-59
2021/12/31 12:53:44;;;;;;;5.93;2.65;;;;;;;;;;5014912;28;19913;-56
2021/12/31 12:56:10;;;;;;;6.28;2.80;;;;;;;;;;5032566;28;20456;-65
2021/12/31 12:58:57;;;;;;;4.07;2.60;;;;;;;;;;5032844;28;20029;-61
2021/12/31 13:01:32;;;;;;;4.43;2.70;;;;;;;;;;5032630;28;20472;-62
2021/12/31 13:03:57;;;;;;;4.15;2.35;;;;;;;;;;5032709;28;20029;-58
2021/12/31 13:06:25;;;;;;;3.58;2.53;;;;;;;;;;5032956;28;20029;-60
2021/12/31 13:09:30;;;;;;;7.47;2.70;;;;;;;;;;5032370;28;20057;-58
2021/12/31 13:11:59;;;;;;;6.30;2.28;;;;;;;;;;4952360;29;20031;-60
2021/12/31 13:14:30;;;;;;;4.97;2.40;;;;;;;;;;4952603;29;20131;-59
2021/12/31 13:16:59;;;;;;;;;;;;;;;;;;4952948;29;20031;-60
2021/12/31 13:19:35;;;;;;;5.63;2.30;;;;;;;;;;4952523;29;19915;-55
2021/12/31 13:22:07;;;;;;;7.18;2.70;;;;;;;;;;4951967;29;20035;-58
2021/12/31 13:24:33;;;;;;;4.15;2.03;;;;;;;;;;4952510;29;20422;-56
2021/12/31 13:27:05;;;;;;;4.70;2.80;;;;;;;;;;4951846;28;20031;-60
2021/12/31 13:29:37;;;;;;;7.30;2.80;;;;;;;;;;4952200;29;20035;-59
2021/12/31 13:32:10;;;;;;;5.45;2.67;;;;;;;;;;4936088;29;20505;-58
2021/12/31 13:34:43;;;;;;;6.10;2.40;;;;;;;;;;4952042;29;20117;-59
2021/12/31 13:37:21;;;;;;;3.75;2.30;;;;;;;;;;4952036;29;20039;-59
2021/12/31 13:39:47;;;;;;;4.03;2.20;;;;;;;;;;4952238;29;20494;-59
2021/12/31 13:42:13;;;;;;;6.03;2.58;;;;;;;;;;4952096;29;20179;-58
2021/12/31 13:44:48;;;;;;;3.72;2.53;;;;;;;;;;4953068;28;20467;-58
2021/12/31 13:47:16;;;;;;;2.92;2.00;;;;;;;;;;5032498;28;20022;-56
2021/12/31 13:49:52;;;;;;;6.35;2.28;;;;;;;;;;5032153;28;20030;-60
2021/12/31 13:52:29;;;;;;;4.70;2.10;;;;;;;;;;5031848;28;20112;-56
2021/12/31 13:54:56;;;;;;;4.97;2.40;;;;;;;;;;5032034;28;20033;-57
2021/12/31 13:57:30;;;;;;;6.20;2.00;;;;;;;;;;5032194;28;20022;-57
2021/12/31 14:00:08;;;;;;;4.55;2.10;;;;;;;;;;5018963;28;20108;-57
2021/12/31 14:02:33;;;;;;;4.57;2.20;;;;;;;;;;5031785;28;20029;-59
2021/12/31 14:05:01;;;;;;;5.68;2.00;;;;;;;;;;5031944;28;20760;-58
2021/12/31 14:07:41;;;;;;;6.70;2.13;;;;;;;;;;5032194;28;20029;-58
2021/12/31 14:10:14;;;;;;;3.60;2.05;;;;;;;;;;5032348;28;20104;-56
2021/12/31 14:12:49;;;;;;;3.15;1.90;;;;;;;;;;5031898;28;20043;-60
2021/12/31 14:15:16;;;;;;;5.03;2.20;;;;;;;;;;5032085;28;20412;-64
2021/12/31 14:17:41;;;;;;;3.80;1.92;;;;;;;;;;5031914;28;20507;-59
2021/12/31 14:20:07;;;;;;;3.80;2.00;;;;;;;;;;5031873;28;20057;-57
2021/12/31 14:22:33;;;;;;;5.38;2.10;;;;;;;;;;5031966;28;20361;-58
2021/12/31 14:24:59;;;;;;;3.88;2.20;;;;;;;;;;5031853;28;20025;-61
2021/12/31 14:27:25;;;;;;;3.13;2.10;;;;;;;;;;5031918;28;20021;-58
2021/12/31 14:29:52;;;;;;;4.07;2.55;;;;;;;;;;5031925;28;20504;-60
2021/12/31 14:32:18;;;;;;;4.10;2.40;;;;;;;;;;5031693;28;20441;-63
2021/12/31 14:34:43;;;;;;;2.88;2.10;;;;;;;;;;5031851;28;20167;-59
2021/12/31 14:37:12;;;;;;;3.33;2.60;;;;;;;;;;5031883;28;20032;-63
2021/12/31 14:39:40;;;;;;;5.20;2.50;;;;;;;;;;5033431;28;20036;-62
2021/12/31 14:42:07;;;;;;;5.95;2.70;;;;;;;;;;5035529;28;20042;-67
2021/12/31 14:44:33;;;;;;;5.28;2.60;;;;;;;;;;5035522;28;20021;-66
2021/12/31 14:47:00;;;;;;;4.88;2.50;;;;;;;;;;5035432;28;20036;-61
2021/12/31 14:49:28;;;;;;;5.85;2.40;;;;;;;;;;5035163;28;20029;-62